sensor_id;sensor_type;location;lat;lon;timestamp;P1;durP1;ratioP1;P2;durP2;ratioP2
54613;SDS011;40514;52.758;6.360;2022-12-07T00:00:54;6.53;;;1.73;;
54613;SDS011;40514;52.758;6.360;2022-12-07T00:03:20;6.85;;;1.58;;
54613;SDS011;40514;52.758;6.360;2022-12-07T00:05:46;6.40;;;1.73;;
54613;SDS011;40514;52.758;6.360;2022-12-07T00:08:11;6.47;;;1.70;;
54613;SDS011;40514;52.758;6.360;2022-12-07T00:10:37;5.30;;;1.60;;
54613;SDS011;40514;52.758;6.360;2022-12-07T00:13:02;5.30;;;1.90;;
54613;SDS011;40514;52.758;6.360;2022-12-07T00:15:28;4.40;;;1.70;;
54613;SDS011;40514;52.758;6.360;2022-12-07T00:17:53;4.57;;;1.90;;
54613;SDS011;40514;52.758;6.360;2022-12-07T00:20:19;4.87;;;1.80;;
54613;SDS011;40514;52.758;6.360;2022-12-07T00:22:44;5.47;;;1.77;;
54613;SDS011;40514;52.758;6.360;2022-12-07T00:25:10;11.27;;;2.10;;
54613;SDS011;40514;52.758;6.360;2022-12-07T00:27:35;8.77;;;1.67;;
54613;SDS011;40514;52.758;6.360;2022-12-07T00:30:01;8.27;;;2.37;;
54613;SDS011;40514;52.758;6.360;2022-12-07T00:32:27;5.80;;;1.98;;
54613;SDS011;40514;52.758;6.360;2022-12-07T00:34:53;7.17;;;2.03;;
54613;SDS011;40514;52.758;6.360;2022-12-07T00:37:18;5.73;;;1.90;;
54613;SDS011;40514;52.758;6.360;2022-12-07T00:39:45;6.63;;;1.90;;
54613;SDS011;40514;52.758;6.360;2022-12-07T00:42:11;6.85;;;1.50;;
54613;SDS011;40514;52.758;6.360;2022-12-07T00:44:36;5.30;;;1.40;;
54613;SDS011;40514;52.758;6.360;2022-12-07T00:47:02;6.43;;;1.80;;
54613;SDS011;40514;52.758;6.360;2022-12-07T00:49:27;6.50;;;1.87;;
54613;SDS011;40514;52.758;6.360;2022-12-07T00:51:53;7.17;;;1.60;;
54613;SDS011;40514;52.758;6.360;2022-12-07T00:54:18;8.43;;;2.20;;
54613;SDS011;40514;52.758;6.360;2022-12-07T00:56:44;4.77;;;2.10;;
54613;SDS011;40514;52.758;6.360;2022-12-07T00:59:10;11.70;;;2.43;;
54613;SDS011;40514;52.758;6.360;2022-12-07T01:01:41;11.95;;;2.30;;
54613;SDS011;40514;52.758;6.360;2022-12-07T01:04:07;5.55;;;1.90;;
54613;SDS011;40514;52.758;6.360;2022-12-07T01:06:33;5.83;;;1.97;;
54613;SDS011;40514;52.758;6.360;2022-12-07T01:08:59;5.23;;;2.20;;
54613;SDS011;40514;52.758;6.360;2022-12-07T01:11:26;6.93;;;2.10;;
54613;SDS011;40514;52.758;6.360;2022-12-07T01:13:53;6.93;;;2.00;;
54613;SDS011;40514;52.758;6.360;2022-12-07T01:16:21;9.02;;;2.60;;
54613;SDS011;40514;52.758;6.360;2022-12-07T01:18:49;4.50;;;1.85;;
54613;SDS011;40514;52.758;6.360;2022-12-07T01:21:20;4.38;;;1.50;;
54613;SDS011;40514;52.758;6.360;2022-12-07T01:23:50;6.05;;;1.70;;
54613;SDS011;40514;52.758;6.360;2022-12-07T01:26:18;7.05;;;1.70;;
54613;SDS011;40514;52.758;6.360;2022-12-07T01:28:46;5.70;;;1.55;;
54613;SDS011;40514;52.758;6.360;2022-12-07T01:31:13;9.13;;;1.80;;
54613;SDS011;40514;52.758;6.360;2022-12-07T01:33:41;7.05;;;1.65;;
54613;SDS011;40514;52.758;6.360;2022-12-07T01:36:08;11.65;;;1.75;;
54613;SDS011;40514;52.758;6.360;2022-12-07T01:38:44;6.43;;;1.80;;
54613;SDS011;40514;52.758;6.360;2022-12-07T01:43:36;5.88;;;1.60;;
54613;SDS011;40514;52.758;6.360;2022-12-07T01:46:22;6.05;;;1.50;;
54613;SDS011;40514;52.758;6.360;2022-12-07T01:48:47;7.67;;;1.57;;
54613;SDS011;40514;52.758;6.360;2022-12-07T01:51:13;5.17;;;1.47;;
54613;SDS011;40514;52.758;6.360;2022-12-07T01:53:41;5.15;;;1.83;;
54613;SDS011;40514;52.758;6.360;2022-12-07T01:56:11;4.75;;;1.48;;
54613;SDS011;40514;52.758;6.360;2022-12-07T01:58:42;5.88;;;1.70;;
54613;SDS011;40514;52.758;6.360;2022-12-07T02:01:08;6.22;;;2.10;;
54613;SDS011;40514;52.758;6.360;2022-12-07T02:03:38;6.90;;;1.87;;
54613;SDS011;40514;52.758;6.360;2022-12-07T02:06:06;7.85;;;2.03;;
54613;SDS011;40514;52.758;6.360;2022-12-07T02:08:33;5.35;;;1.77;;
54613;SDS011;40514;52.758;6.360;2022-12-07T02:11:00;4.72;;;1.42;;
54613;SDS011;40514;52.758;6.360;2022-12-07T02:13:28;6.00;;;1.58;;
54613;SDS011;40514;52.758;6.360;2022-12-07T02:21:34;5.00;;;1.33;;
54613;SDS011;40514;52.758;6.360;2022-12-07T02:24:14;6.05;;;1.80;;
54613;SDS011;40514;52.758;6.360;2022-12-07T02:29:35;4.95;;;1.40;;
54613;SDS011;40514;52.758;6.360;2022-12-07T02:32:15;5.35;;;1.30;;
54613;SDS011;40514;52.758;6.360;2022-12-07T02:34:52;5.63;;;1.30;;
54613;SDS011;40514;52.758;6.360;2022-12-07T02:43:34;6.03;;;1.50;;
54613;SDS011;40514;52.758;6.360;2022-12-07T02:45:50;5.80;;;1.75;;
54613;SDS011;40514;52.758;6.360;2022-12-07T02:48:18;7.10;;;1.30;;
54613;SDS011;40514;52.758;6.360;2022-12-07T02:50:48;7.88;;;1.63;;
54613;SDS011;40514;52.758;6.360;2022-12-07T02:53:28;8.57;;;1.70;;
54613;SDS011;40514;52.758;6.360;2022-12-07T03:04:14;8.00;;;1.97;;
54613;SDS011;40514;52.758;6.360;2022-12-07T03:06:51;6.30;;;1.98;;
54613;SDS011;40514;52.758;6.360;2022-12-07T03:09:32;8.13;;;1.80;;
54613;SDS011;40514;52.758;6.360;2022-12-07T03:12:09;7.72;;;1.60;;
54613;SDS011;40514;52.758;6.360;2022-12-07T03:14:45;6.90;;;1.60;;
54613;SDS011;40514;52.758;6.360;2022-12-07T03:17:18;5.05;;;1.40;;
54613;SDS011;40514;52.758;6.360;2022-12-07T03:19:49;8.13;;;1.38;;
54613;SDS011;40514;52.758;6.360;2022-12-07T03:22:18;5.43;;;1.40;;
54613;SDS011;40514;52.758;6.360;2022-12-07T03:24:47;3.42;;;1.10;;
54613;SDS011;40514;52.758;6.360;2022-12-07T03:27:27;6.70;;;1.27;;
54613;SDS011;40514;52.758;6.360;2022-12-07T03:32:30;4.20;;;1.20;;
54613;SDS011;40514;52.758;6.360;2022-12-07T03:37:42;6.70;;;1.35;;
54613;SDS011;40514;52.758;6.360;2022-12-07T03:43:00;4.95;;;1.00;;
54613;SDS011;40514;52.758;6.360;2022-12-07T03:48:26;6.72;;;1.30;;
54613;SDS011;40514;52.758;6.360;2022-12-07T03:51:06;3.97;;;1.02;;
54613;SDS011;40514;52.758;6.360;2022-12-07T03:53:46;8.25;;;1.20;;
54613;SDS011;40514;52.758;6.360;2022-12-07T03:56:17;9.43;;;1.27;;
54613;SDS011;40514;52.758;6.360;2022-12-07T03:58:44;7.20;;;1.45;;
54613;SDS011;40514;52.758;6.360;2022-12-07T04:01:09;7.90;;;1.60;;
54613;SDS011;40514;52.758;6.360;2022-12-07T04:03:35;9.00;;;1.37;;
54613;SDS011;40514;52.758;6.360;2022-12-07T04:06:01;5.47;;;1.50;;
54613;SDS011;40514;52.758;6.360;2022-12-07T04:08:26;7.50;;;1.20;;
54613;SDS011;40514;52.758;6.360;2022-12-07T04:10:52;3.03;;;0.87;;
54613;SDS011;40514;52.758;6.360;2022-12-07T04:13:18;4.83;;;1.30;;
54613;SDS011;40514;52.758;6.360;2022-12-07T04:15:43;8.30;;;1.30;;
54613;SDS011;40514;52.758;6.360;2022-12-07T04:18:09;4.73;;;1.13;;
54613;SDS011;40514;52.758;6.360;2022-12-07T04:20:34;5.63;;;1.13;;
54613;SDS011;40514;52.758;6.360;2022-12-07T04:23:00;7.10;;;1.17;;
54613;SDS011;40514;52.758;6.360;2022-12-07T04:25:25;4.77;;;1.10;;
54613;SDS011;40514;52.758;6.360;2022-12-07T04:27:51;4.93;;;1.23;;
54613;SDS011;40514;52.758;6.360;2022-12-07T04:30:17;6.27;;;1.43;;
54613;SDS011;40514;52.758;6.360;2022-12-07T04:32:42;6.23;;;1.27;;
54613;SDS011;40514;52.758;6.360;2022-12-07T04:35:08;6.07;;;1.20;;
54613;SDS011;40514;52.758;6.360;2022-12-07T04:37:34;7.95;;;1.42;;
54613;SDS011;40514;52.758;6.360;2022-12-07T04:40:00;4.60;;;1.20;;
54613;SDS011;40514;52.758;6.360;2022-12-07T04:42:25;6.17;;;1.20;;
54613;SDS011;40514;52.758;6.360;2022-12-07T04:44:51;7.43;;;1.60;;
54613;SDS011;40514;52.758;6.360;2022-12-07T04:47:16;4.10;;;1.17;;
54613;SDS011;40514;52.758;6.360;2022-12-07T04:49:42;5.53;;;1.23;;
54613;SDS011;40514;52.758;6.360;2022-12-07T04:52:07;6.03;;;1.33;;
54613;SDS011;40514;52.758;6.360;2022-12-07T04:54:33;4.53;;;1.17;;
54613;SDS011;40514;52.758;6.360;2022-12-07T04:56:59;6.50;;;1.40;;
54613;SDS011;40514;52.758;6.360;2022-12-07T04:59:24;8.47;;;1.50;;
54613;SDS011;40514;52.758;6.360;2022-12-07T05:01:50;4.27;;;1.10;;
54613;SDS011;40514;52.758;6.360;2022-12-07T05:04:15;6.73;;;1.70;;
54613;SDS011;40514;52.758;6.360;2022-12-07T05:06:42;3.35;;;1.20;;
54613;SDS011;40514;52.758;6.360;2022-12-07T05:09:08;5.27;;;1.27;;
54613;SDS011;40514;52.758;6.360;2022-12-07T05:11:34;7.57;;;1.50;;
54613;SDS011;40514;52.758;6.360;2022-12-07T05:14:03;9.43;;;1.60;;
54613;SDS011;40514;52.758;6.360;2022-12-07T05:16:31;7.00;;;1.40;;
54613;SDS011;40514;52.758;6.360;2022-12-07T05:18:57;6.20;;;1.40;;
54613;SDS011;40514;52.758;6.360;2022-12-07T05:21:23;4.45;;;1.30;;
54613;SDS011;40514;52.758;6.360;2022-12-07T05:23:49;7.30;;;1.37;;
54613;SDS011;40514;52.758;6.360;2022-12-07T05:26:15;4.20;;;1.50;;
54613;SDS011;40514;52.758;6.360;2022-12-07T05:28:40;4.70;;;1.73;;
54613;SDS011;40514;52.758;6.360;2022-12-07T05:31:06;9.30;;;1.73;;
54613;SDS011;40514;52.758;6.360;2022-12-07T05:33:32;6.50;;;1.37;;
54613;SDS011;40514;52.758;6.360;2022-12-07T05:35:57;6.57;;;1.50;;
54613;SDS011;40514;52.758;6.360;2022-12-07T05:38:23;6.93;;;1.53;;
54613;SDS011;40514;52.758;6.360;2022-12-07T05:43:16;5.60;;;1.45;;
54613;SDS011;40514;52.758;6.360;2022-12-07T05:45:41;9.60;;;1.57;;
54613;SDS011;40514;52.758;6.360;2022-12-07T05:48:07;4.87;;;1.10;;
54613;SDS011;40514;52.758;6.360;2022-12-07T05:50:32;7.33;;;1.27;;
54613;SDS011;40514;52.758;6.360;2022-12-07T05:52:58;5.77;;;1.40;;
54613;SDS011;40514;52.758;6.360;2022-12-07T05:55:23;7.13;;;1.53;;
54613;SDS011;40514;52.758;6.360;2022-12-07T05:57:49;4.93;;;1.50;;
54613;SDS011;40514;52.758;6.360;2022-12-07T06:00:33;8.77;;;1.52;;
54613;SDS011;40514;52.758;6.360;2022-12-07T06:02:58;4.37;;;1.40;;
54613;SDS011;40514;52.758;6.360;2022-12-07T06:05:24;4.57;;;1.20;;
54613;SDS011;40514;52.758;6.360;2022-12-07T06:07:49;5.73;;;1.40;;
54613;SDS011;40514;52.758;6.360;2022-12-07T06:10:15;5.77;;;1.70;;
54613;SDS011;40514;52.758;6.360;2022-12-07T06:12:41;8.77;;;1.60;;
54613;SDS011;40514;52.758;6.360;2022-12-07T06:15:08;7.70;;;1.60;;
54613;SDS011;40514;52.758;6.360;2022-12-07T06:20:00;6.10;;;1.20;;
54613;SDS011;40514;52.758;6.360;2022-12-07T06:22:26;7.83;;;1.47;;
54613;SDS011;40514;52.758;6.360;2022-12-07T06:24:51;9.37;;;2.40;;
54613;SDS011;40514;52.758;6.360;2022-12-07T06:27:17;6.13;;;1.40;;
54613;SDS011;40514;52.758;6.360;2022-12-07T06:29:43;4.90;;;1.47;;
54613;SDS011;40514;52.758;6.360;2022-12-07T06:32:08;7.50;;;1.37;;
54613;SDS011;40514;52.758;6.360;2022-12-07T06:34:34;6.83;;;1.67;;
54613;SDS011;40514;52.758;6.360;2022-12-07T06:36:59;5.87;;;2.20;;
54613;SDS011;40514;52.758;6.360;2022-12-07T06:39:26;7.83;;;2.73;;
54613;SDS011;40514;52.758;6.360;2022-12-07T06:41:53;8.68;;;3.30;;
54613;SDS011;40514;52.758;6.360;2022-12-07T06:44:19;13.20;;;3.20;;
54613;SDS011;40514;52.758;6.360;2022-12-07T06:46:46;12.95;;;3.10;;
54613;SDS011;40514;52.758;6.360;2022-12-07T06:49:12;8.47;;;1.60;;
54613;SDS011;40514;52.758;6.360;2022-12-07T06:51:38;5.97;;;1.70;;
54613;SDS011;40514;52.758;6.360;2022-12-07T06:54:06;8.23;;;1.77;;
54613;SDS011;40514;52.758;6.360;2022-12-07T06:56:36;5.88;;;1.90;;
54613;SDS011;40514;52.758;6.360;2022-12-07T06:59:02;4.83;;;1.63;;
54613;SDS011;40514;52.758;6.360;2022-12-07T07:01:30;5.40;;;1.50;;
54613;SDS011;40514;52.758;6.360;2022-12-07T07:03:56;7.47;;;1.70;;
54613;SDS011;40514;52.758;6.360;2022-12-07T07:06:21;8.20;;;2.90;;
54613;SDS011;40514;52.758;6.360;2022-12-07T07:08:47;7.80;;;3.23;;
54613;SDS011;40514;52.758;6.360;2022-12-07T07:11:12;5.67;;;1.90;;
54613;SDS011;40514;52.758;6.360;2022-12-07T07:13:38;6.60;;;1.90;;
54613;SDS011;40514;52.758;6.360;2022-12-07T07:16:04;5.90;;;2.57;;
54613;SDS011;40514;52.758;6.360;2022-12-07T07:18:30;8.93;;;2.90;;
54613;SDS011;40514;52.758;6.360;2022-12-07T07:20:56;6.43;;;2.47;;
54613;SDS011;40514;52.758;6.360;2022-12-07T07:23:22;6.10;;;1.33;;
54613;SDS011;40514;52.758;6.360;2022-12-07T07:25:47;6.93;;;1.20;;
54613;SDS011;40514;52.758;6.360;2022-12-07T07:28:14;4.60;;;1.60;;
54613;SDS011;40514;52.758;6.360;2022-12-07T07:30:40;4.22;;;1.33;;
54613;SDS011;40514;52.758;6.360;2022-12-07T07:33:06;5.10;;;1.60;;
54613;SDS011;40514;52.758;6.360;2022-12-07T07:35:32;6.97;;;2.83;;
54613;SDS011;40514;52.758;6.360;2022-12-07T07:37:58;9.07;;;2.65;;
54613;SDS011;40514;52.758;6.360;2022-12-07T07:40:25;5.20;;;1.40;;
54613;SDS011;40514;52.758;6.360;2022-12-07T07:42:51;6.38;;;1.23;;
54613;SDS011;40514;52.758;6.360;2022-12-07T07:47:44;4.28;;;1.30;;
54613;SDS011;40514;52.758;6.360;2022-12-07T07:50:09;9.73;;;1.63;;
54613;SDS011;40514;52.758;6.360;2022-12-07T07:52:35;6.10;;;1.80;;
54613;SDS011;40514;52.758;6.360;2022-12-07T07:55:01;6.97;;;1.20;;
54613;SDS011;40514;52.758;6.360;2022-12-07T07:57:27;4.47;;;1.88;;
54613;SDS011;40514;52.758;6.360;2022-12-07T07:59:53;6.63;;;2.40;;
54613;SDS011;40514;52.758;6.360;2022-12-07T08:02:19;5.33;;;1.40;;
54613;SDS011;40514;52.758;6.360;2022-12-07T08:07:11;3.33;;;1.30;;
54613;SDS011;40514;52.758;6.360;2022-12-07T08:09:37;5.37;;;1.50;;
54613;SDS011;40514;52.758;6.360;2022-12-07T08:12:03;4.77;;;1.80;;
54613;SDS011;40514;52.758;6.360;2022-12-07T08:14:29;5.32;;;1.38;;
54613;SDS011;40514;52.758;6.360;2022-12-07T08:16:55;6.30;;;1.40;;
54613;SDS011;40514;52.758;6.360;2022-12-07T08:19:20;3.90;;;1.50;;
54613;SDS011;40514;52.758;6.360;2022-12-07T08:21:46;5.67;;;1.90;;
54613;SDS011;40514;52.758;6.360;2022-12-07T08:24:11;5.67;;;1.50;;
54613;SDS011;40514;52.758;6.360;2022-12-07T08:26:37;5.33;;;1.50;;
54613;SDS011;40514;52.758;6.360;2022-12-07T08:29:03;4.73;;;1.40;;
54613;SDS011;40514;52.758;6.360;2022-12-07T08:31:28;5.03;;;1.27;;
54613;SDS011;40514;52.758;6.360;2022-12-07T08:33:54;6.70;;;1.40;;
54613;SDS011;40514;52.758;6.360;2022-12-07T08:36:20;5.07;;;1.30;;
54613;SDS011;40514;52.758;6.360;2022-12-07T08:38:47;4.57;;;1.38;;
54613;SDS011;40514;52.758;6.360;2022-12-07T08:41:13;4.57;;;1.63;;
54613;SDS011;40514;52.758;6.360;2022-12-07T08:43:38;6.87;;;1.47;;
54613;SDS011;40514;52.758;6.360;2022-12-07T08:46:17;4.50;;;1.60;;
54613;SDS011;40514;52.758;6.360;2022-12-07T08:49:02;5.07;;;1.38;;
54613;SDS011;40514;52.758;6.360;2022-12-07T08:51:33;5.78;;;1.48;;
54613;SDS011;40514;52.758;6.360;2022-12-07T08:54:00;6.23;;;1.70;;
54613;SDS011;40514;52.758;6.360;2022-12-07T08:56:28;4.50;;;1.33;;
54613;SDS011;40514;52.758;6.360;2022-12-07T08:58:54;3.93;;;1.57;;
54613;SDS011;40514;52.758;6.360;2022-12-07T09:01:20;7.53;;;1.60;;
54613;SDS011;40514;52.758;6.360;2022-12-07T09:03:45;5.30;;;1.70;;
54613;SDS011;40514;52.758;6.360;2022-12-07T09:06:11;7.43;;;1.53;;
54613;SDS011;40514;52.758;6.360;2022-12-07T09:08:38;5.17;;;1.47;;
54613;SDS011;40514;52.758;6.360;2022-12-07T09:11:07;6.85;;;1.58;;
54613;SDS011;40514;52.758;6.360;2022-12-07T09:13:32;5.40;;;1.50;;
54613;SDS011;40514;52.758;6.360;2022-12-07T09:15:58;4.73;;;1.57;;
54613;SDS011;40514;52.758;6.360;2022-12-07T09:18:23;4.67;;;1.60;;
54613;SDS011;40514;52.758;6.360;2022-12-07T09:20:49;7.30;;;1.50;;
54613;SDS011;40514;52.758;6.360;2022-12-07T09:23:15;7.47;;;1.70;;
54613;SDS011;40514;52.758;6.360;2022-12-07T09:25:41;5.40;;;1.50;;
54613;SDS011;40514;52.758;6.360;2022-12-07T09:28:07;7.57;;;1.40;;
54613;SDS011;40514;52.758;6.360;2022-12-07T09:30:33;5.75;;;1.60;;
54613;SDS011;40514;52.758;6.360;2022-12-07T09:32:59;5.63;;;1.33;;
54613;SDS011;40514;52.758;6.360;2022-12-07T09:35:25;8.37;;;1.50;;
54613;SDS011;40514;52.758;6.360;2022-12-07T09:37:50;5.37;;;1.70;;
54613;SDS011;40514;52.758;6.360;2022-12-07T09:40:16;8.30;;;1.53;;
54613;SDS011;40514;52.758;6.360;2022-12-07T09:42:46;8.50;;;1.80;;
54613;SDS011;40514;52.758;6.360;2022-12-07T09:45:15;5.22;;;1.83;;
54613;SDS011;40514;52.758;6.360;2022-12-07T09:47:46;4.88;;;1.60;;
54613;SDS011;40514;52.758;6.360;2022-12-07T09:50:22;5.53;;;1.65;;
54613;SDS011;40514;52.758;6.360;2022-12-07T09:52:50;7.15;;;1.60;;
54613;SDS011;40514;52.758;6.360;2022-12-07T09:57:53;7.10;;;1.50;;
54613;SDS011;40514;52.758;6.360;2022-12-07T10:00:20;10.20;;;2.45;;
54613;SDS011;40514;52.758;6.360;2022-12-07T10:02:53;6.57;;;1.50;;
54613;SDS011;40514;52.758;6.360;2022-12-07T10:05:31;11.77;;;3.28;;
54613;SDS011;40514;52.758;6.360;2022-12-07T10:08:07;8.00;;;3.22;;
54613;SDS011;40514;52.758;6.360;2022-12-07T10:10:38;9.15;;;2.45;;
54613;SDS011;40514;52.758;6.360;2022-12-07T10:18:26;5.25;;;1.60;;
54613;SDS011;40514;52.758;6.360;2022-12-07T10:23:32;7.03;;;1.80;;
54613;SDS011;40514;52.758;6.360;2022-12-07T10:25:58;7.53;;;1.67;;
54613;SDS011;40514;52.758;6.360;2022-12-07T10:28:27;5.57;;;1.40;;
54613;SDS011;40514;52.758;6.360;2022-12-07T10:31:01;4.47;;;1.47;;
54613;SDS011;40514;52.758;6.360;2022-12-07T10:33:53;5.22;;;1.60;;
54613;SDS011;40514;52.758;6.360;2022-12-07T10:36:22;6.38;;;1.70;;
54613;SDS011;40514;52.758;6.360;2022-12-07T10:38:50;5.85;;;1.83;;
54613;SDS011;40514;52.758;6.360;2022-12-07T10:41:17;6.93;;;1.48;;
54613;SDS011;40514;52.758;6.360;2022-12-07T10:43:49;5.03;;;1.60;;
54613;SDS011;40514;52.758;6.360;2022-12-07T10:52:50;4.30;;;1.45;;
54613;SDS011;40514;52.758;6.360;2022-12-07T11:03:31;5.25;;;1.60;;
54613;SDS011;40514;52.758;6.360;2022-12-07T11:06:21;4.50;;;1.40;;
54613;SDS011;40514;52.758;6.360;2022-12-07T11:09:12;8.30;;;2.33;;
54613;SDS011;40514;52.758;6.360;2022-12-07T11:14:40;7.10;;;1.58;;
54613;SDS011;40514;52.758;6.360;2022-12-07T11:17:18;7.05;;;1.80;;
54613;SDS011;40514;52.758;6.360;2022-12-07T11:20:13;7.15;;;1.50;;
54613;SDS011;40514;52.758;6.360;2022-12-07T11:25:58;4.45;;;1.30;;
54613;SDS011;40514;52.758;6.360;2022-12-07T11:28:37;8.77;;;1.75;;
54613;SDS011;40514;52.758;6.360;2022-12-07T11:34:41;6.28;;;1.73;;
54613;SDS011;40514;52.758;6.360;2022-12-07T11:37:27;7.50;;;1.95;;
54613;SDS011;40514;52.758;6.360;2022-12-07T11:40:11;8.48;;;1.65;;
54613;SDS011;40514;52.758;6.360;2022-12-07T11:43:13;6.55;;;1.50;;
54613;SDS011;40514;52.758;6.360;2022-12-07T11:45:42;5.53;;;1.80;;
54613;SDS011;40514;52.758;6.360;2022-12-07T11:48:22;9.45;;;2.30;;
54613;SDS011;40514;52.758;6.360;2022-12-07T11:50:56;5.78;;;1.92;;
54613;SDS011;40514;52.758;6.360;2022-12-07T11:53:41;6.22;;;1.38;;
54613;SDS011;40514;52.758;6.360;2022-12-07T11:56:22;5.93;;;1.73;;
54613;SDS011;40514;52.758;6.360;2022-12-07T11:58:55;7.20;;;1.67;;
54613;SDS011;40514;52.758;6.360;2022-12-07T12:06:37;5.67;;;1.40;;
54613;SDS011;40514;52.758;6.360;2022-12-07T12:20:19;7.05;;;1.73;;
54613;SDS011;40514;52.758;6.360;2022-12-07T12:22:58;6.25;;;1.50;;
54613;SDS011;40514;52.758;6.360;2022-12-07T12:25:30;6.20;;;1.60;;
54613;SDS011;40514;52.758;6.360;2022-12-07T12:28:03;7.60;;;1.67;;
54613;SDS011;40514;52.758;6.360;2022-12-07T12:30:30;7.43;;;1.80;;
54613;SDS011;40514;52.758;6.360;2022-12-07T12:33:03;6.10;;;1.40;;
54613;SDS011;40514;52.758;6.360;2022-12-07T12:35:35;5.57;;;1.60;;
54613;SDS011;40514;52.758;6.360;2022-12-07T12:47:01;6.80;;;1.70;;
54613;SDS011;40514;52.758;6.360;2022-12-07T12:52:00;6.67;;;1.60;;
54613;SDS011;40514;52.758;6.360;2022-12-07T12:55:11;6.32;;;1.40;;
54613;SDS011;40514;52.758;6.360;2022-12-07T12:57:42;7.68;;;1.55;;
54613;SDS011;40514;52.758;6.360;2022-12-07T13:00:20;4.27;;;1.27;;
54613;SDS011;40514;52.758;6.360;2022-12-07T13:02:54;6.50;;;1.63;;
54613;SDS011;40514;52.758;6.360;2022-12-07T13:05:22;6.22;;;1.38;;
54613;SDS011;40514;52.758;6.360;2022-12-07T13:18:39;6.38;;;1.35;;
54613;SDS011;40514;52.758;6.360;2022-12-07T13:31:23;5.45;;;1.85;;
54613;SDS011;40514;52.758;6.360;2022-12-07T13:33:57;6.80;;;1.50;;
54613;SDS011;40514;52.758;6.360;2022-12-07T13:36:23;9.73;;;2.00;;
54613;SDS011;40514;52.758;6.360;2022-12-07T13:38:52;7.57;;;1.50;;
54613;SDS011;40514;52.758;6.360;2022-12-07T13:41:23;5.90;;;1.40;;
54613;SDS011;40514;52.758;6.360;2022-12-07T13:44:00;5.07;;;1.30;;
54613;SDS011;40514;52.758;6.360;2022-12-07T13:46:41;8.60;;;1.52;;
54613;SDS011;40514;52.758;6.360;2022-12-07T13:49:23;3.28;;;1.02;;
54613;SDS011;40514;52.758;6.360;2022-12-07T13:51:54;5.18;;;1.55;;
54613;SDS011;40514;52.758;6.360;2022-12-07T13:54:31;6.55;;;1.50;;
54613;SDS011;40514;52.758;6.360;2022-12-07T13:56:57;5.97;;;1.67;;
54613;SDS011;40514;52.758;6.360;2022-12-07T13:59:24;8.57;;;1.95;;
54613;SDS011;40514;52.758;6.360;2022-12-07T14:01:51;5.88;;;2.03;;
54613;SDS011;40514;52.758;6.360;2022-12-07T14:04:37;5.65;;;1.77;;
54613;SDS011;40514;52.758;6.360;2022-12-07T14:07:47;7.93;;;2.20;;
54613;SDS011;40514;52.758;6.360;2022-12-07T14:09:59;6.10;;;1.60;;
54613;SDS011;40514;52.758;6.360;2022-12-07T14:12:27;5.18;;;1.58;;
54613;SDS011;40514;52.758;6.360;2022-12-07T14:14:55;6.43;;;1.48;;
54613;SDS011;40514;52.758;6.360;2022-12-07T14:17:22;7.75;;;1.88;;
54613;SDS011;40514;52.758;6.360;2022-12-07T14:19:57;3.70;;;1.38;;
54613;SDS011;40514;52.758;6.360;2022-12-07T14:27:56;6.22;;;1.40;;
54613;SDS011;40514;52.758;6.360;2022-12-07T14:30:30;5.38;;;1.35;;
54613;SDS011;40514;52.758;6.360;2022-12-07T14:33:01;6.63;;;1.60;;
54613;SDS011;40514;52.758;6.360;2022-12-07T14:35:29;5.13;;;1.40;;
54613;SDS011;40514;52.758;6.360;2022-12-07T14:37:55;4.45;;;1.40;;
54613;SDS011;40514;52.758;6.360;2022-12-07T14:40:22;3.70;;;1.30;;
54613;SDS011;40514;52.758;6.360;2022-12-07T14:42:57;3.22;;;1.02;;
54613;SDS011;40514;52.758;6.360;2022-12-07T14:45:27;5.57;;;1.30;;
54613;SDS011;40514;52.758;6.360;2022-12-07T14:47:53;4.83;;;1.30;;
54613;SDS011;40514;52.758;6.360;2022-12-07T14:50:19;5.63;;;1.33;;
54613;SDS011;40514;52.758;6.360;2022-12-07T14:53:10;4.57;;;1.08;;
54613;SDS011;40514;52.758;6.360;2022-12-07T14:55:35;6.10;;;1.13;;
54613;SDS011;40514;52.758;6.360;2022-12-07T14:58:01;4.70;;;1.20;;
54613;SDS011;40514;52.758;6.360;2022-12-07T15:00:27;3.60;;;1.10;;
54613;SDS011;40514;52.758;6.360;2022-12-07T15:02:53;7.22;;;1.58;;
54613;SDS011;40514;52.758;6.360;2022-12-07T15:05:20;5.50;;;1.38;;
54613;SDS011;40514;52.758;6.360;2022-12-07T15:07:46;5.33;;;1.40;;
54613;SDS011;40514;52.758;6.360;2022-12-07T15:12:45;6.43;;;1.83;;
54613;SDS011;40514;52.758;6.360;2022-12-07T15:15:11;6.40;;;2.70;;
54613;SDS011;40514;52.758;6.360;2022-12-07T15:17:38;3.67;;;1.30;;
54613;SDS011;40514;52.758;6.360;2022-12-07T15:20:03;3.60;;;1.10;;
54613;SDS011;40514;52.758;6.360;2022-12-07T15:22:29;4.68;;;1.17;;
54613;SDS011;40514;52.758;6.360;2022-12-07T15:24:56;4.95;;;1.08;;
54613;SDS011;40514;52.758;6.360;2022-12-07T15:27:22;3.55;;;1.00;;
54613;SDS011;40514;52.758;6.360;2022-12-07T15:29:48;3.73;;;1.13;;
54613;SDS011;40514;52.758;6.360;2022-12-07T15:32:13;5.30;;;1.00;;
54613;SDS011;40514;52.758;6.360;2022-12-07T15:34:39;2.53;;;0.80;;
54613;SDS011;40514;52.758;6.360;2022-12-07T15:37:04;3.10;;;0.97;;
54613;SDS011;40514;52.758;6.360;2022-12-07T15:39:31;2.50;;;0.80;;
54613;SDS011;40514;52.758;6.360;2022-12-07T15:41:56;4.23;;;0.87;;
54613;SDS011;40514;52.758;6.360;2022-12-07T15:44:22;4.80;;;1.20;;
54613;SDS011;40514;52.758;6.360;2022-12-07T15:47:06;4.10;;;1.20;;
54613;SDS011;40514;52.758;6.360;2022-12-07T15:49:31;3.90;;;1.20;;
54613;SDS011;40514;52.758;6.360;2022-12-07T15:51:57;2.27;;;0.90;;
54613;SDS011;40514;52.758;6.360;2022-12-07T15:54:24;3.53;;;1.20;;
54613;SDS011;40514;52.758;6.360;2022-12-07T15:56:54;4.03;;;1.13;;
54613;SDS011;40514;52.758;6.360;2022-12-07T15:59:21;2.85;;;1.15;;
54613;SDS011;40514;52.758;6.360;2022-12-07T16:01:47;5.90;;;1.33;;
54613;SDS011;40514;52.758;6.360;2022-12-07T16:04:13;6.97;;;1.53;;
54613;SDS011;40514;52.758;6.360;2022-12-07T16:06:38;4.40;;;1.50;;
54613;SDS011;40514;52.758;6.360;2022-12-07T16:09:04;6.03;;;1.33;;
54613;SDS011;40514;52.758;6.360;2022-12-07T16:11:30;3.58;;;1.40;;
54613;SDS011;40514;52.758;6.360;2022-12-07T16:13:56;3.53;;;1.30;;
54613;SDS011;40514;52.758;6.360;2022-12-07T16:16:22;3.00;;;1.40;;
54613;SDS011;40514;52.758;6.360;2022-12-07T16:18:48;3.57;;;1.20;;
54613;SDS011;40514;52.758;6.360;2022-12-07T16:21:15;4.80;;;1.58;;
54613;SDS011;40514;52.758;6.360;2022-12-07T16:26:14;3.05;;;1.30;;
54613;SDS011;40514;52.758;6.360;2022-12-07T16:28:42;2.47;;;1.30;;
54613;SDS011;40514;52.758;6.360;2022-12-07T16:31:12;3.00;;;1.20;;
54613;SDS011;40514;52.758;6.360;2022-12-07T16:33:39;5.28;;;1.40;;
54613;SDS011;40514;52.758;6.360;2022-12-07T16:38:32;4.45;;;1.98;;
54613;SDS011;40514;52.758;6.360;2022-12-07T16:43:24;3.90;;;1.50;;
54613;SDS011;40514;52.758;6.360;2022-12-07T16:45:50;4.47;;;1.60;;
54613;SDS011;40514;52.758;6.360;2022-12-07T16:48:16;6.40;;;1.40;;
54613;SDS011;40514;52.758;6.360;2022-12-07T16:50:42;4.18;;;1.33;;
54613;SDS011;40514;52.758;6.360;2022-12-07T16:53:09;3.33;;;1.30;;
54613;SDS011;40514;52.758;6.360;2022-12-07T16:55:36;2.38;;;1.20;;
54613;SDS011;40514;52.758;6.360;2022-12-07T16:58:09;4.47;;;1.40;;
54613;SDS011;40514;52.758;6.360;2022-12-07T17:00:40;4.78;;;1.60;;
54613;SDS011;40514;52.758;6.360;2022-12-07T17:03:07;4.20;;;1.20;;
54613;SDS011;40514;52.758;6.360;2022-12-07T17:05:33;3.97;;;1.20;;
54613;SDS011;40514;52.758;6.360;2022-12-07T17:08:02;4.65;;;1.23;;
54613;SDS011;40514;52.758;6.360;2022-12-07T17:10:28;4.13;;;1.20;;
54613;SDS011;40514;52.758;6.360;2022-12-07T17:12:54;2.90;;;1.03;;
54613;SDS011;40514;52.758;6.360;2022-12-07T17:15:19;3.87;;;1.20;;
54613;SDS011;40514;52.758;6.360;2022-12-07T17:17:56;4.47;;;1.55;;
54613;SDS011;40514;52.758;6.360;2022-12-07T17:20:24;5.88;;;1.30;;
54613;SDS011;40514;52.758;6.360;2022-12-07T17:22:52;4.53;;;1.40;;